Time;durP1;ratioP1;P1;durP2;ratioP2;P2;SDS_P1;SDS_P2;PMS_P1;PMS_P2;Temp;Humidity;BMP_temperature;BMP_pressure;BME280_temperature;BME280_humidity;BME280_pressure;Samples;Min_cycle;Max_cycle;Signal;HPM_P1;HPM_P2
2021/03/30 00:00:05;;;;;;;;;10.75;9.25;;;;;;;;5083341;28;11432;-77
2021/03/30 00:02:32;;;;;;;;;11.00;9.00;;;;;;;;5083782;28;11482;-80
2021/03/30 00:05:00;;;;;;;;;14.00;10.00;;;;;;;;5087337;28;11480;-78
2021/03/30 00:07:28;;;;;;;;;10.75;10.75;;;;;;;;5084944;28;11925;-80
2021/03/30 00:09:56;;;;;;;;;9.25;9.25;;;;;;;;5087499;28;11503;-79
2021/03/30 00:12:23;;;;;;;;;7.25;7.25;;;;;;;;5081505;28;11501;-80
2021/03/30 00:14:50;;;;;;;;;7.00;7.00;;;;;;;;5081787;28;11524;-81
2021/03/30 00:17:17;;;;;;;;;9.00;9.00;;;;;;;;5084519;28;11491;-81
2021/03/30 00:19:44;;;;;;;;;10.00;6.00;;;;;;;;5082157;28;11523;-80
2021/03/30 00:22:12;;;;;;;;;11.75;7.00;;;;;;;;5072695;28;11587;-79
2021/03/30 00:24:42;;;;;;;;;9.00;9.00;;;;;;;;5082612;28;12321;-79
2021/03/30 00:27:10;;;;;;;;;9.00;9.00;;;;;;;;5083027;28;11478;-79
2021/03/30 00:29:43;;;;;;;;;13.25;11.25;;;;;;;;5082643;28;11632;-79
2021/03/30 00:32:13;;;;;;;;;15.25;13.25;;;;;;;;5081085;28;11511;-80
2021/03/30 00:34:40;;;;;;;;;11.00;9.00;;;;;;;;5083353;28;11518;-78
2021/03/30 00:37:08;;;;;;;;;10.50;10.50;;;;;;;;5084389;28;12721;-79
2021/03/30 00:39:36;;;;;;;;;9.75;9.75;;;;;;;;5084354;28;12439;-79
2021/03/30 00:42:07;;;;;;;;;12.75;12.75;;;;;;;;5083769;28;11543;-81
2021/03/30 00:44:38;;;;;;;;;8.75;8.75;;;;;;;;5084740;28;11563;-79
2021/03/30 00:47:06;;;;;;;;;7.75;7.75;;;;;;;;5084020;28;11504;-78
2021/03/30 00:49:33;;;;;;;;;11.50;10.50;;;;;;;;5084035;28;12435;-78
2021/03/30 00:52:02;;;;;;;;;11.75;11.75;;;;;;;;5084722;28;11522;-81
2021/03/30 00:54:28;;;;;;;;;20.50;16.50;;;;;;;;5084590;28;11554;-79
2021/03/30 00:56:55;;;;;;;;;12.50;12.50;;;;;;;;5082756;28;11505;-79
2021/03/30 00:59:23;;;;;;;;;11.00;11.00;;;;;;;;5084177;28;11545;-82
2021/03/30 01:01:51;;;;;;;;;14.25;10.75;;;;;;;;5076693;28;11554;-80
2021/03/30 01:04:19;;;;;;;;;13.00;11.00;;;;;;;;5083929;28;11538;-81
2021/03/30 01:06:46;;;;;;;;;14.00;12.00;;;;;;;;5083319;28;12273;-80
2021/03/30 01:09:20;;;;;;;;;15.00;11.00;;;;;;;;5083645;28;11535;-80
2021/03/30 01:11:59;;;;;;;;;17.25;14.00;;;;;;;;5076226;28;11571;-81
2021/03/30 01:14:37;;;;;;;;;12.00;12.00;;;;;;;;5082957;28;11533;-81
2021/03/30 01:17:10;;;;;;;;;17.00;15.25;;;;;;;;5083905;28;11513;-82
2021/03/30 01:20:09;;;;;;;;;10.75;10.75;;;;;;;;5084201;28;11522;-80
2021/03/30 01:23:09;;;;;;;;;17.00;15.25;;;;;;;;5076872;28;11548;-82
2021/03/30 01:25:39;;;;;;;;;16.00;13.75;;;;;;;;5037197;28;11721;-81
2021/03/30 01:28:16;;;;;;;;;16.50;15.00;;;;;;;;5078130;28;11688;-81
2021/03/30 01:30:45;;;;;;;;;12.50;12.50;;;;;;;;5081235;28;11474;-79
2021/03/30 01:33:15;;;;;;;;;14.75;13.00;;;;;;;;5082864;28;11534;-80
2021/03/30 01:35:42;;;;;;;;;19.50;15.50;;;;;;;;5082512;28;12273;-80
2021/03/30 01:38:11;;;;;;;;;12.75;12.75;;;;;;;;5084423;28;11761;-79
2021/03/30 01:40:39;;;;;;;;;13.25;11.00;;;;;;;;5075468;28;11549;-82
2021/03/30 01:43:07;;;;;;;;;16.75;15.00;;;;;;;;5083834;28;12964;-80
2021/03/30 01:45:35;;;;;;;;;13.25;13.25;;;;;;;;5083031;28;11640;-80
2021/03/30 01:48:07;;;;;;;;;12.75;12.75;;;;;;;;5082734;28;11677;-82
2021/03/30 01:50:35;;;;;;;;;12.25;9.50;;;;;;;;5082721;28;11547;-80
2021/03/30 01:53:02;;;;;;;;;13.00;13.00;;;;;;;;5079356;28;11566;-84
2021/03/30 01:55:29;;;;;;;;;15.50;13.00;;;;;;;;5083331;28;11509;-80
2021/03/30 01:57:58;;;;;;;;;17.25;13.75;;;;;;;;5082465;28;11530;-80
2021/03/30 02:00:29;;;;;;;;;16.75;12.50;;;;;;;;5077340;28;11484;-82
2021/03/30 02:02:56;;;;;;;;;23.00;22.75;;;;;;;;5084139;28;11644;-82
2021/03/30 02:05:24;;;;;;;;;10.00;10.00;;;;;;;;5081510;28;11684;-80
2021/03/30 02:07:53;;;;;;;;;17.00;12.00;;;;;;;;5083630;28;11634;-82
2021/03/30 02:10:29;;;;;;;;;18.25;14.25;;;;;;;;5080967;28;11526;-82
2021/03/30 02:12:58;;;;;;;;;19.25;14.00;;;;;;;;5083485;28;11562;-82
2021/03/30 02:15:26;;;;;;;;;13.25;13.25;;;;;;;;5082061;28;11702;-84
2021/03/30 02:17:57;;;;;;;;;16.25;15.25;;;;;;;;5082788;28;11641;-81
2021/03/30 02:20:30;;;;;;;;;15.00;13.25;;;;;;;;5082798;28;11634;-82
2021/03/30 02:23:01;;;;;;;;;19.00;14.25;;;;;;;;5082455;28;11633;-82
2021/03/30 02:25:30;;;;;;;;;17.25;15.75;;;;;;;;5082572;28;11622;-83
2021/03/30 02:27:59;;;;;;;;;13.00;13.00;;;;;;;;5082148;28;11587;-82
2021/03/30 02:30:27;;;;;;;;;10.25;10.25;;;;;;;;5082340;28;11599;-80
2021/03/30 02:32:55;;;;;;;;;16.00;16.00;;;;;;;;5082468;28;11713;-77
2021/03/30 02:35:25;;;;;;;;;16.00;14.00;;;;;;;;5082504;28;11713;-76
2021/03/30 02:37:52;;;;;;;;;16.00;16.00;;;;;;;;5083221;28;11537;-80
2021/03/30 02:40:23;;;;;;;;;15.75;15.25;;;;;;;;5081868;28;11688;-80
2021/03/30 02:42:52;;;;;;;;;16.25;14.25;;;;;;;;5083157;28;11555;-80
2021/03/30 02:45:23;;;;;;;;;19.00;16.50;;;;;;;;5090646;28;11527;-80
2021/03/30 02:47:51;;;;;;;;;18.00;16.50;;;;;;;;5084371;28;11974;-81
2021/03/30 02:50:19;;;;;;;;;6.50;6.50;;;;;;;;5081708;28;11514;-79
2021/03/30 02:52:47;;;;;;;;;21.75;17.00;;;;;;;;5085850;28;11596;-79
2021/03/30 02:55:14;;;;;;;;;20.00;17.00;;;;;;;;5088172;28;12421;-80
2021/03/30 02:57:42;;;;;;;;;17.50;15.75;;;;;;;;5086254;28;11541;-78
2021/03/30 03:00:11;;;;;;;;;20.25;18.75;;;;;;;;5085413;28;11703;-79
2021/03/30 03:02:39;;;;;;;;;19.50;17.75;;;;;;;;5085709;28;11640;-79
2021/03/30 03:05:08;;;;;;;;;19.50;16.25;;;;;;;;5085895;28;11667;-81
2021/03/30 03:07:36;;;;;;;;;25.50;21.50;;;;;;;;5085295;28;11548;-80
2021/03/30 03:10:08;;;;;;;;;24.00;18.75;;;;;;;;5086539;28;11544;-80
2021/03/30 03:12:37;;;;;;;;;23.00;20.25;;;;;;;;5086320;28;11523;-81
2021/03/30 03:15:07;;;;;;;;;24.75;16.75;;;;;;;;5084948;28;11536;-84
2021/03/30 03:17:34;;;;;;;;;21.25;21.25;;;;;;;;5080952;28;11666;-82
2021/03/30 03:20:01;;;;;;;;;21.25;21.25;;;;;;;;5087306;28;11652;-82
2021/03/30 03:22:28;;;;;;;;;22.00;17.50;;;;;;;;5097053;28;11549;-84
2021/03/30 03:24:55;;;;;;;;;23.00;20.00;;;;;;;;5083252;28;11673;-79
2021/03/30 03:27:23;;;;;;;;;24.25;22.25;;;;;;;;5086324;28;11649;-80
2021/03/30 03:29:50;;;;;;;;;21.25;18.50;;;;;;;;5083668;28;11552;-82
2021/03/30 03:32:23;;;;;;;;;20.00;19.50;;;;;;;;5081858;28;11489;-82
2021/03/30 03:34:50;;;;;;;;;25.25;21.00;;;;;;;;5085382;28;11562;-79
2021/03/30 03:37:17;;;;;;;;;16.75;16.75;;;;;;;;5084600;28;11580;-81
2021/03/30 03:39:44;;;;;;;;;29.50;25.50;;;;;;;;5085599;28;11650;-80
2021/03/30 03:42:11;;;;;;;;;16.75;16.25;;;;;;;;5085464;28;11586;-78
2021/03/30 03:44:39;;;;;;;;;25.25;25.25;;;;;;;;5088478;28;11649;-81
2021/03/30 03:47:06;;;;;;;;;26.25;24.00;;;;;;;;5085647;28;11564;-79
2021/03/30 03:49:33;;;;;;;;;24.25;19.25;;;;;;;;5084560;28;11562;-81
2021/03/30 03:52:03;;;;;;;;;23.00;21.00;;;;;;;;5080177;28;11679;-77
2021/03/30 03:54:31;;;;;;;;;31.00;27.00;;;;;;;;5083971;28;11600;-80
2021/03/30 03:57:04;;;;;;;;;26.25;23.50;;;;;;;;5084298;28;11531;-82
2021/03/30 03:59:34;;;;;;;;;24.50;19.75;;;;;;;;5077279;28;11652;-79
2021/03/30 04:02:06;;;;;;;;;22.75;19.75;;;;;;;;5082812;28;11513;-77
2021/03/30 04:04:39;;;;;;;;;19.75;19.75;;;;;;;;5084462;28;11554;-81
2021/03/30 04:07:08;;;;;;;;;34.25;27.50;;;;;;;;5084180;28;11567;-80
2021/03/30 04:09:36;;;;;;;;;26.25;23.50;;;;;;;;5084671;28;11562;-80
2021/03/30 04:12:04;;;;;;;;;22.25;19.75;;;;;;;;5076663;28;11584;-80
2021/03/30 04:14:34;;;;;;;;;28.75;23.25;;;;;;;;5085067;28;11567;-81
2021/03/30 04:17:07;;;;;;;;;31.00;27.00;;;;;;;;5086215;28;11550;-84
2021/03/30 04:19:39;;;;;;;;;29.00;24.25;;;;;;;;5086578;28;11583;-80
2021/03/30 04:22:06;;;;;;;;;31.00;26.00;;;;;;;;5085506;28;11657;-83
2021/03/30 04:24:34;;;;;;;;;27.50;27.50;;;;;;;;5084291;28;11692;-81
2021/03/30 04:27:01;;;;;;;;;25.00;23.00;;;;;;;;5084179;28;11609;-82
2021/03/30 04:29:28;;;;;;;;;26.75;26.00;;;;;;;;5084186;28;11559;-84
2021/03/30 04:31:54;;;;;;;;;17.50;17.50;;;;;;;;5084700;28;11511;-85
2021/03/30 04:34:23;;;;;;;;;25.00;22.00;;;;;;;;5083911;28;11541;-87
2021/03/30 04:36:50;;;;;;;;;27.00;25.00;;;;;;;;5085313;28;11548;-84
2021/03/30 04:39:17;;;;;;;;;24.50;23.00;;;;;;;;5065029;28;11545;-80
2021/03/30 04:41:44;;;;;;;;;29.75;25.00;;;;;;;;5086546;28;11548;-78
2021/03/30 04:44:11;;;;;;;;;25.50;22.25;;;;;;;;5085401;28;11715;-82
2021/03/30 04:46:38;;;;;;;;;29.25;27.00;;;;;;;;5083689;28;11569;-80
2021/03/30 04:49:05;;;;;;;;;30.75;24.75;;;;;;;;5085805;28;11557;-84
2021/03/30 04:51:33;;;;;;;;;25.75;21.75;;;;;;;;5079569;28;11574;-84
2021/03/30 04:54:00;;;;;;;;;28.25;24.25;;;;;;;;5085042;28;11597;-79
2021/03/30 04:56:28;;;;;;;;;30.50;28.75;;;;;;;;5078524;28;11595;-79
2021/03/30 04:58:55;;;;;;;;;38.75;27.50;;;;;;;;5084425;28;11575;-83
2021/03/30 05:01:22;;;;;;;;;27.00;25.25;;;;;;;;5084324;28;11507;-85
2021/03/30 05:03:48;;;;;;;;;21.25;21.25;;;;;;;;5065461;28;11619;-82
2021/03/30 05:06:15;;;;;;;;;32.25;27.50;;;;;;;;5085948;28;11568;-87
2021/03/30 05:08:44;;;;;;;;;31.00;27.00;;;;;;;;5084471;28;11515;-84
2021/03/30 05:11:10;;;;;;;;;30.50;30.25;;;;;;;;5085797;28;11585;-81
2021/03/30 05:13:37;;;;;;;;;38.00;34.25;;;;;;;;5082257;28;11599;-88
2021/03/30 05:16:05;;;;;;;;;39.75;34.00;;;;;;;;5081807;28;11561;-84
2021/03/30 05:18:32;;;;;;;;;25.00;22.50;;;;;;;;5081761;28;11543;-84
2021/03/30 05:20:59;;;;;;;;;37.75;34.75;;;;;;;;5082207;28;11545;-81
2021/03/30 05:23:25;;;;;;;;;37.50;28.75;;;;;;;;5085297;28;11691;-83
2021/03/30 05:25:53;;;;;;;;;36.25;30.25;;;;;;;;5082913;28;11584;-82
2021/03/30 05:28:20;;;;;;;;;39.50;32.75;;;;;;;;5083802;28;11695;-83
2021/03/30 05:30:47;;;;;;;;;41.75;39.25;;;;;;;;5080959;28;11490;-76
2021/03/30 05:33:14;;;;;;;;;41.00;36.50;;;;;;;;5082808;28;11655;-76
2021/03/30 05:35:41;;;;;;;;;44.25;35.25;;;;;;;;5090673;28;11621;-77
2021/03/30 05:38:08;;;;;;;;;24.00;22.50;;;;;;;;5082924;28;11586;-76
2021/03/30 05:40:35;;;;;;;;;29.50;25.50;;;;;;;;5084122;28;11590;-76
2021/03/30 05:43:03;;;;;;;;;36.50;34.50;;;;;;;;5081759;28;11682;-79
2021/03/30 05:45:32;;;;;;;;;32.00;29.75;;;;;;;;5087266;28;12371;-75
2021/03/30 05:47:59;;;;;;;;;44.00;29.25;;;;;;;;5082735;28;11704;-77
2021/03/30 05:50:28;;;;;;;;;31.75;27.00;;;;;;;;5088902;28;12715;-76
2021/03/30 05:53:04;;;;;;;;;27.25;25.00;;;;;;;;5079640;28;11592;-75
2021/03/30 05:55:36;;;;;;;;;30.75;23.75;;;;;;;;5082972;28;11555;-77
2021/03/30 05:58:05;;;;;;;;;29.75;28.25;;;;;;;;5078670;28;12415;-68
2021/03/30 06:00:34;;;;;;;;;26.75;25.50;;;;;;;;5081458;28;11517;-69
2021/03/30 06:03:04;;;;;;;;;29.00;22.50;;;;;;;;5081216;28;11609;-70
2021/03/30 06:05:31;;;;;;;;;30.00;27.50;;;;;;;;5078897;28;11539;-71
2021/03/30 06:07:59;;;;;;;;;36.25;32.50;;;;;;;;5082039;28;11583;-69
2021/03/30 06:10:27;;;;;;;;;35.25;31.50;;;;;;;;5078793;28;11576;-71
2021/03/30 06:12:55;;;;;;;;;40.50;36.75;;;;;;;;5077572;28;11697;-69
2021/03/30 06:15:28;;;;;;;;;32.50;28.25;;;;;;;;5076764;28;12377;-70
2021/03/30 06:17:55;;;;;;;;;35.00;28.00;;;;;;;;5071854;28;11542;-68
2021/03/30 06:20:32;;;;;;;;;34.50;34.00;;;;;;;;5063000;28;11548;-69
2021/03/30 06:23:01;;;;;;;;;25.75;23.75;;;;;;;;5069137;28;11548;-70
2021/03/30 06:25:40;;;;;;;;;36.50;30.00;;;;;;;;5066054;28;11580;-69
2021/03/30 06:28:15;;;;;;;;;37.00;31.25;;;;;;;;5074894;28;11561;-69
2021/03/30 06:30:55;;;;;;;;;33.50;33.50;;;;;;;;5076470;28;11519;-69
2021/03/30 06:33:22;;;;;;;;;39.50;34.00;;;;;;;;5077124;28;11728;-71
2021/03/30 06:35:50;;;;;;;;;40.75;39.25;;;;;;;;5073605;28;11516;-70
2021/03/30 06:38:17;;;;;;;;;39.50;33.50;;;;;;;;5071831;28;11708;-70
2021/03/30 06:40:46;;;;;;;;;30.25;26.75;;;;;;;;5071867;28;11578;-71
2021/03/30 06:46:08;;;;;;;;;45.00;33.75;;;;;;;;5070598;28;11556;-68
2021/03/30 06:48:36;;;;;;;;;42.25;40.25;;;;;;;;5075455;28;11726;-66
2021/03/30 06:51:17;;;;;;;;;40.00;35.75;;;;;;;;5080673;28;12384;-66
2021/03/30 06:53:44;;;;;;;;;45.75;40.50;;;;;;;;5078277;28;11565;-68
2021/03/30 06:56:11;;;;;;;;;44.50;38.50;;;;;;;;5085839;28;11586;-68
2021/03/30 06:58:56;;;;;;;;;48.00;43.25;;;;;;;;5085664;28;11575;-68
2021/03/30 07:01:24;;;;;;;;;48.00;41.75;;;;;;;;5084536;28;11523;-67
2021/03/30 07:03:51;;;;;;;;;46.50;39.00;;;;;;;;5086939;28;11553;-67
2021/03/30 07:06:20;;;;;;;;;60.00;46.25;;;;;;;;5085145;28;11555;-68
2021/03/30 07:08:47;;;;;;;;;35.50;33.50;;;;;;;;5086087;28;11568;-67
2021/03/30 07:11:17;;;;;;;;;58.00;46.50;;;;;;;;5086001;28;11597;-68
2021/03/30 07:13:43;;;;;;;;;51.00;43.25;;;;;;;;5084977;28;11603;-67
2021/03/30 07:16:15;;;;;;;;;46.50;40.00;;;;;;;;5085887;28;11566;-67
2021/03/30 07:18:45;;;;;;;;;55.75;42.75;;;;;;;;5085678;28;11731;-69
2021/03/30 07:21:16;;;;;;;;;55.50;42.75;;;;;;;;5092599;28;11638;-68
2021/03/30 07:23:47;;;;;;;;;50.75;40.00;;;;;;;;5085404;28;11559;-68
2021/03/30 07:26:16;;;;;;;;;49.00;41.50;;;;;;;;5086333;28;11557;-68
2021/03/30 07:28:47;;;;;;;;;41.75;39.00;;;;;;;;5086386;28;11526;-68
2021/03/30 07:31:18;;;;;;;;;38.25;33.50;;;;;;;;5085367;27;11515;-68
2021/03/30 07:33:50;;;;;;;;;33.00;28.00;;;;;;;;5084970;28;11571;-67
2021/03/30 07:36:18;;;;;;;;;34.75;29.50;;;;;;;;5084463;28;11554;-68
2021/03/30 07:38:48;;;;;;;;;40.00;35.25;;;;;;;;5086111;28;11540;-68
2021/03/30 07:41:20;;;;;;;;;38.25;33.25;;;;;;;;5085132;28;11620;-68
2021/03/30 07:43:48;;;;;;;;;35.00;30.75;;;;;;;;5083921;28;11553;-68
2021/03/30 07:46:16;;;;;;;;;37.50;35.25;;;;;;;;5084991;28;12055;-67
2021/03/30 07:48:45;;;;;;;;;46.75;41.00;;;;;;;;5086141;28;11583;-70
2021/03/30 07:51:13;;;;;;;;;42.50;39.75;;;;;;;;5078289;28;11555;-68
2021/03/30 07:53:42;;;;;;;;;32.75;32.25;;;;;;;;5080567;28;12341;-70
2021/03/30 07:56:11;;;;;;;;;41.25;36.25;;;;;;;;5085506;28;11495;-70
2021/03/30 07:58:42;;;;;;;;;40.50;36.25;;;;;;;;5085444;28;12111;-69
2021/03/30 08:01:11;;;;;;;;;36.75;30.00;;;;;;;;5084646;27;11429;-69
2021/03/30 08:03:39;;;;;;;;;33.00;29.25;;;;;;;;5085054;28;12445;-69
2021/03/30 08:06:21;;;;;;;;;43.50;36.50;;;;;;;;5084784;28;11518;-70
2021/03/30 08:08:51;;;;;;;;;44.00;37.00;;;;;;;;5076042;28;12256;-68
2021/03/30 08:11:33;;;;;;;;;42.25;35.75;;;;;;;;5084394;28;12322;-69
2021/03/30 08:14:00;;;;;;;;;42.50;39.00;;;;;;;;5083691;28;12157;-69
2021/03/30 08:16:27;;;;;;;;;37.50;33.75;;;;;;;;5085868;28;12499;-67
2021/03/30 08:18:54;;;;;;;;;39.00;33.50;;;;;;;;5085003;28;11499;-68
2021/03/30 08:21:22;;;;;;;;;36.00;32.75;;;;;;;;5082745;28;11278;-70
2021/03/30 08:24:09;;;;;;;;;31.50;31.00;;;;;;;;5076513;28;11296;-69
2021/03/30 08:26:39;;;;;;;;;34.00;33.50;;;;;;;;5082104;28;11245;-70
2021/03/30 08:29:09;;;;;;;;;34.00;30.25;;;;;;;;5084036;28;10985;-71
2021/03/30 08:31:38;;;;;;;;;34.75;29.75;;;;;;;;5084877;27;10877;-69
2021/03/30 08:34:09;;;;;;;;;30.00;28.75;;;;;;;;5075576;28;11581;-70
2021/03/30 08:36:47;;;;;;;;;26.00;26.00;;;;;;;;5084473;28;10769;-67
2021/03/30 08:39:35;;;;;;;;;36.75;34.75;;;;;;;;5085058;28;10556;-68
2021/03/30 08:42:11;;;;;;;;;34.75;30.00;;;;;;;;5083526;28;11272;-70
2021/03/30 08:44:43;;;;;;;;;41.75;35.25;;;;;;;;5085149;28;10504;-68
2021/03/30 08:47:12;;;;;;;;;32.25;30.50;;;;;;;;5083394;28;10910;-68
2021/03/30 08:49:42;;;;;;;;;36.00;33.75;;;;;;;;5083600;28;10413;-69
2021/03/30 08:52:12;;;;;;;;;33.00;31.00;;;;;;;;5084924;28;10180;-69
2021/03/30 08:54:49;;;;;;;;;31.00;28.50;;;;;;;;5083202;28;10054;-68
2021/03/30 08:57:22;;;;;;;;;34.50;29.00;;;;;;;;5084409;28;9847;-68
2021/03/30 08:59:48;;;;;;;;;32.25;26.00;;;;;;;;5082966;28;9874;-68
2021/03/30 09:02:23;;;;;;;;;23.50;23.50;;;;;;;;5083493;28;9535;-68
2021/03/30 09:04:51;;;;;;;;;21.00;21.00;;;;;;;;5083201;28;9522;-69
2021/03/30 09:07:19;;;;;;;;;36.67;30.67;;;;;;;;5082073;28;9434;-69
2021/03/30 09:09:46;;;;;;;;;26.00;23.33;;;;;;;;5083285;28;9324;-68
2021/03/30 09:12:21;;;;;;;;;26.00;24.00;;;;;;;;5082399;28;9134;-69
2021/03/30 09:14:59;;;;;;;;;20.00;20.00;;;;;;;;5083912;28;8937;-68
2021/03/30 09:17:28;;;;;;;;;23.25;23.25;;;;;;;;5083606;28;8852;-69
2021/03/30 09:19:55;;;;;;;;;23.50;21.50;;;;;;;;5080980;28;8838;-69
2021/03/30 09:22:27;;;;;;;;;20.75;19.25;;;;;;;;5083196;28;8920;-69
2021/03/30 09:25:02;;;;;;;;;28.25;25.00;;;;;;;;5082755;28;8917;-68
2021/03/30 09:27:31;;;;;;;;;28.25;23.25;;;;;;;;5084281;28;8857;-71
2021/03/30 09:30:01;;;;;;;;;31.25;23.00;;;;;;;;5082896;28;8885;-72
2021/03/30 09:32:31;;;;;;;;;29.75;24.50;;;;;;;;5073185;28;8831;-69
2021/03/30 09:35:03;;;;;;;;;21.25;21.25;;;;;;;;5069882;28;8880;-69
2021/03/30 09:37:35;;;;;;;;;30.50;29.00;;;;;;;;5069348;28;8898;-69
2021/03/30 09:40:07;;;;;;;;;21.25;20.50;;;;;;;;5068426;28;8967;-69
2021/03/30 09:42:35;;;;;;;;;29.50;28.00;;;;;;;;5065975;28;8990;-70
2021/03/30 09:45:02;;;;;;;;;30.50;27.25;;;;;;;;5063385;28;8868;-73
2021/03/30 09:47:30;;;;;;;;;19.75;18.50;;;;;;;;5063009;28;8885;-68
2021/03/30 09:49:57;;;;;;;;;16.75;16.75;;;;;;;;5073267;28;8978;-72
2021/03/30 09:52:25;;;;;;;;;22.00;17.25;;;;;;;;5063480;28;9050;-71
2021/03/30 09:54:53;;;;;;;;;13.75;13.00;;;;;;;;5062466;28;8872;-69
2021/03/30 09:57:26;;;;;;;;;23.00;17.75;;;;;;;;5058156;28;9034;-68
2021/03/30 09:59:53;;;;;;;;;18.00;13.50;;;;;;;;5056677;28;8899;-69
2021/03/30 10:02:25;;;;;;;;;15.25;15.25;;;;;;;;5082208;28;8814;-71
2021/03/30 10:04:56;;;;;;;;;14.25;14.25;;;;;;;;5083410;28;8884;-69
2021/03/30 10:07:24;;;;;;;;;15.75;15.00;;;;;;;;5080638;28;8888;-70
2021/03/30 10:10:00;;;;;;;;;14.25;13.50;;;;;;;;5082646;28;8914;-68
2021/03/30 10:12:30;;;;;;;;;15.50;12.00;;;;;;;;5082719;28;8854;-70
2021/03/30 10:15:01;;;;;;;;;14.00;12.00;;;;;;;;5083496;28;8854;-70
2021/03/30 10:17:30;;;;;;;;;18.40;15.60;;;;;;;;5082740;28;8875;-69
2021/03/30 10:20:00;;;;;;;;;14.80;13.60;;;;;;;;5083746;28;8869;-68
2021/03/30 10:22:31;;;;;;;;;14.00;12.80;;;;;;;;5073194;28;9023;-68
2021/03/30 10:25:16;;;;;;;;;17.60;16.60;;;;;;;;5082729;28;8865;-69
2021/03/30 10:27:52;;;;;;;;;14.20;14.20;;;;;;;;5084492;28;8877;-68
2021/03/30 10:30:28;;;;;;;;;14.60;13.20;;;;;;;;5078449;27;8869;-69
2021/03/30 10:32:58;;;;;;;;;22.40;20.40;;;;;;;;5082264;28;8853;-69
2021/03/30 10:35:29;;;;;;;;;14.20;14.00;;;;;;;;5080834;28;8861;-69
2021/03/30 10:37:57;;;;;;;;;14.60;14.60;;;;;;;;5081296;28;8865;-70
2021/03/30 10:40:32;;;;;;;;;13.80;13.60;;;;;;;;5081379;28;8834;-69
2021/03/30 10:43:17;;;;;;;;;12.60;12.60;;;;;;;;5080106;28;8861;-70
2021/03/30 10:45:44;;;;;;;;;13.60;12.60;;;;;;;;5074416;28;8825;-71
2021/03/30 10:48:11;;;;;;;;;15.80;13.80;;;;;;;;5081165;28;8873;-73
2021/03/30 10:50:38;;;;;;;;;15.20;15.20;;;;;;;;5082376;28;9600;-69
2021/03/30 10:53:06;;;;;;;;;13.80;13.80;;;;;;;;5078968;28;8924;-71
2021/03/30 10:55:34;;;;;;;;;14.80;11.60;;;;;;;;5081298;28;8881;-70
2021/03/30 10:58:05;;;;;;;;;13.60;13.60;;;;;;;;5081946;28;8972;-70
2021/03/30 11:00:32;;;;;;;;;14.80;11.20;;;;;;;;5084392;28;8815;-71
2021/03/30 11:03:02;;;;;;;;;14.20;12.20;;;;;;;;5081904;28;8860;-72
2021/03/30 11:05:28;;;;;;;;;20.00;20.00;;;;;;;;5080556;28;8961;-72
2021/03/30 11:07:56;;;;;;;;;15.20;15.20;;;;;;;;5083037;28;8980;-72
2021/03/30 11:10:25;;;;;;;;;17.80;16.00;;;;;;;;5078631;28;8970;-71
2021/03/30 11:12:53;;;;;;;;;18.60;16.40;;;;;;;;5084738;28;8920;-72
2021/03/30 11:15:20;;;;;;;;;13.20;10.00;;;;;;;;5085520;28;8914;-69
2021/03/30 11:17:47;;;;;;;;;13.40;11.40;;;;;;;;5084381;28;8952;-70
2021/03/30 11:20:16;;;;;;;;;10.20;10.20;;;;;;;;5084920;28;8834;-74
2021/03/30 11:22:45;;;;;;;;;9.60;9.60;;;;;;;;5084078;28;9688;-71
2021/03/30 11:25:13;;;;;;;;;9.60;8.60;;;;;;;;5085695;28;8841;-73
2021/03/30 11:27:43;;;;;;;;;8.20;8.20;;;;;;;;5084246;28;9753;-70
2021/03/30 11:30:15;;;;;;;;;8.00;7.80;;;;;;;;5083096;28;8988;-70
2021/03/30 11:32:48;;;;;;;;;7.00;7.00;;;;;;;;5083355;28;8874;-71
2021/03/30 11:35:17;;;;;;;;;9.80;8.20;;;;;;;;5083394;28;8967;-73
2021/03/30 11:37:52;;;;;;;;;9.80;9.80;;;;;;;;5085891;28;8989;-73
2021/03/30 11:40:19;;;;;;;;;10.40;10.40;;;;;;;;5084117;28;8877;-71
2021/03/30 11:42:49;;;;;;;;;12.00;12.00;;;;;;;;5085082;28;8849;-73
2021/03/30 11:45:17;;;;;;;;;9.60;8.60;;;;;;;;5082058;28;8857;-71
2021/03/30 11:47:44;;;;;;;;;11.40;8.20;;;;;;;;5086338;28;8907;-71
2021/03/30 11:50:12;;;;;;;;;9.60;9.60;;;;;;;;5085439;28;8834;-70
2021/03/30 11:52:40;;;;;;;;;10.20;6.80;;;;;;;;5084997;28;8864;-72
2021/03/30 11:55:10;;;;;;;;;9.20;8.80;;;;;;;;5086144;28;8866;-70
2021/03/30 11:57:37;;;;;;;;;11.00;11.00;;;;;;;;5084312;28;8874;-71
2021/03/30 12:00:05;;;;;;;;;11.00;11.00;;;;;;;;5085406;28;8865;-70
2021/03/30 12:02:33;;;;;;;;;12.00;10.60;;;;;;;;5081203;28;8853;-69
2021/03/30 12:05:00;;;;;;;;;13.20;10.20;;;;;;;;5080515;28;8982;-71
2021/03/30 12:07:27;;;;;;;;;12.00;12.00;;;;;;;;5085060;28;8854;-70
2021/03/30 12:09:54;;;;;;;;;11.40;11.00;;;;;;;;5084371;28;8896;-70
2021/03/30 12:12:20;;;;;;;;;11.80;11.60;;;;;;;;5085182;28;8857;-71
2021/03/30 12:14:47;;;;;;;;;13.60;12.00;;;;;;;;5084369;28;9491;-70
2021/03/30 12:17:14;;;;;;;;;9.40;9.40;;;;;;;;5085974;28;8865;-69
2021/03/30 12:19:42;;;;;;;;;15.60;12.20;;;;;;;;5083736;28;8869;-70
2021/03/30 12:22:09;;;;;;;;;13.00;11.20;;;;;;;;5085378;28;8907;-70
2021/03/30 12:24:37;;;;;;;;;11.20;11.20;;;;;;;;5083478;28;8854;-70
2021/03/30 12:27:08;;;;;;;;;9.60;9.60;;;;;;;;5084369;28;8858;-70
2021/03/30 12:29:36;;;;;;;;;12.60;9.80;;;;;;;;5078455;28;8826;-70
2021/03/30 12:32:03;;;;;;;;;11.20;9.40;;;;;;;;5081724;28;8921;-70
2021/03/30 12:34:30;;;;;;;;;10.00;9.20;;;;;;;;5083761;28;8869;-70
2021/03/30 12:36:58;;;;;;;;;7.40;7.40;;;;;;;;5083262;28;8858;-68
2021/03/30 12:39:25;;;;;;;;;12.00;9.00;;;;;;;;5085013;28;8882;-68
2021/03/30 12:41:52;;;;;;;;;8.00;8.00;;;;;;;;5083964;28;8869;-69
2021/03/30 12:44:19;;;;;;;;;9.00;9.00;;;;;;;;5084220;28;8885;-69
2021/03/30 12:46:46;;;;;;;;;12.00;12.00;;;;;;;;5084080;28;9627;-70
2021/03/30 12:49:13;;;;;;;;;10.80;10.80;;;;;;;;5084085;28;8854;-69
2021/03/30 12:51:40;;;;;;;;;6.80;6.80;;;;;;;;5084916;28;8984;-69
2021/03/30 12:54:09;;;;;;;;;7.20;7.20;;;;;;;;5083109;28;8872;-70
2021/03/30 12:56:36;;;;;;;;;8.40;8.40;;;;;;;;5084781;28;9028;-69
2021/03/30 12:59:03;;;;;;;;;7.80;7.80;;;;;;;;5083921;28;8872;-68
2021/03/30 13:01:31;;;;;;;;;7.40;7.40;;;;;;;;5082912;28;8814;-69
2021/03/30 13:03:58;;;;;;;;;10.00;9.00;;;;;;;;5072035;28;8841;-69
2021/03/30 13:06:25;;;;;;;;;5.40;5.00;;;;;;;;5082624;28;8858;-69
2021/03/30 13:08:52;;;;;;;;;6.60;6.60;;;;;;;;5083448;28;9600;-69
2021/03/30 13:11:20;;;;;;;;;17.00;10.40;;;;;;;;5081814;28;8865;-68
2021/03/30 13:13:46;;;;;;;;;32.80;27.40;;;;;;;;5084157;28;8858;-69
2021/03/30 13:16:14;;;;;;;;;20.00;17.00;;;;;;;;5082604;28;8842;-70
2021/03/30 13:18:41;;;;;;;;;16.80;16.00;;;;;;;;5084329;28;8880;-69
2021/03/30 13:21:10;;;;;;;;;8.20;6.80;;;;;;;;5083426;28;8883;-69
2021/03/30 13:23:37;;;;;;;;;7.00;7.00;;;;;;;;5082123;28;8881;-70
2021/03/30 13:26:04;;;;;;;;;15.20;15.00;;;;;;;;5084405;28;8960;-69
2021/03/30 13:28:32;;;;;;;;;11.20;8.00;;;;;;;;5082673;28;8996;-70
2021/03/30 13:30:59;;;;;;;;;28.40;23.00;;;;;;;;5082706;28;8786;-70
2021/03/30 13:33:26;;;;;;;;;7.20;7.20;;;;;;;;5081151;28;8919;-70
2021/03/30 13:35:53;;;;;;;;;16.00;14.40;;;;;;;;5083315;28;8996;-71
2021/03/30 13:38:21;;;;;;;;;10.40;10.40;;;;;;;;5083659;28;8877;-71
2021/03/30 13:40:48;;;;;;;;;5.80;5.80;;;;;;;;5083603;28;9548;-71
2021/03/30 13:43:14;;;;;;;;;13.00;10.20;;;;;;;;5083192;28;9083;-71
2021/03/30 13:45:42;;;;;;;;;5.20;5.20;;;;;;;;5081972;28;8850;-71
2021/03/30 13:48:10;;;;;;;;;30.40;26.20;;;;;;;;5083495;28;8846;-71
2021/03/30 13:50:37;;;;;;;;;14.40;13.40;;;;;;;;5082097;28;8872;-72
2021/03/30 13:53:04;;;;;;;;;22.80;21.60;;;;;;;;5083714;28;8845;-73
2021/03/30 13:55:32;;;;;;;;;9.80;9.20;;;;;;;;5082482;28;9566;-72
2021/03/30 13:57:59;;;;;;;;;9.00;7.60;;;;;;;;5079702;28;8870;-72
2021/03/30 14:00:26;;;;;;;;;6.80;6.80;;;;;;;;5080445;28;8772;-73
2021/03/30 14:02:54;;;;;;;;;5.40;5.40;;;;;;;;5082337;28;8854;-72
2021/03/30 14:05:20;;;;;;;;;11.20;11.20;;;;;;;;5083512;28;9006;-73
2021/03/30 14:07:47;;;;;;;;;5.20;5.20;;;;;;;;5082009;28;8838;-71
2021/03/30 14:10:18;;;;;;;;;7.60;7.60;;;;;;;;5083381;28;8850;-71
2021/03/30 14:12:53;;;;;;;;;12.20;12.20;;;;;;;;5080681;28;9667;-72
2021/03/30 14:15:30;;;;;;;;;6.20;6.20;;;;;;;;5082089;28;8865;-71
2021/03/30 14:18:07;;;;;;;;;7.20;7.20;;;;;;;;5082635;28;8845;-72
2021/03/30 14:20:34;;;;;;;;;12.20;10.80;;;;;;;;5082222;28;8885;-71
2021/03/30 14:23:09;;;;;;;;;7.20;6.40;;;;;;;;5082340;28;8866;-71
2021/03/30 14:25:40;;;;;;;;;5.00;5.00;;;;;;;;5081523;28;8893;-71
2021/03/30 14:28:07;;;;;;;;;8.20;5.80;;;;;;;;5081465;28;9800;-71
2021/03/30 14:30:34;;;;;;;;;6.00;6.00;;;;;;;;5081343;27;8905;-71
2021/03/30 14:33:01;;;;;;;;;6.00;5.60;;;;;;;;5080971;28;8872;-72
2021/03/30 14:35:28;;;;;;;;;4.00;4.00;;;;;;;;5080755;28;8846;-72
2021/03/30 14:37:55;;;;;;;;;6.00;4.00;;;;;;;;5076709;28;8873;-72
2021/03/30 14:40:26;;;;;;;;;4.80;4.80;;;;;;;;5081182;28;9131;-71